createdAt,value
2018-01-10T00:02:25.467Z,3.50
2018-01-10T00:04:53.067Z,4.10
2018-01-10T00:07:20.577Z,3.47
2018-01-10T00:09:48.066Z,4.57
2018-01-10T00:12:16.362Z,4.50
2018-01-10T00:14:43.918Z,3.50
2018-01-10T00:17:11.495Z,3.80
2018-01-10T00:19:39.042Z,3.43
2018-01-10T00:22:06.603Z,3.93
2018-01-10T00:24:34.099Z,3.50
2018-01-10T00:27:01.613Z,3.67
2018-01-10T00:29:29.174Z,4.20
2018-01-10T00:31:56.710Z,4.20
2018-01-10T00:34:24.990Z,5.53
2018-01-10T00:36:53.290Z,6.30
2018-01-10T00:39:20.842Z,5.90
2018-01-10T00:41:48.401Z,6.23
2018-01-10T00:44:15.911Z,6.17
2018-01-10T00:46:43.410Z,6.20
2018-01-10T00:49:11.690Z,6.43
2018-01-10T00:51:39.186Z,6.10
2018-01-10T00:54:06.706Z,6.00
2018-01-10T00:56:34.201Z,7.17
2018-01-10T00:59:01.726Z,4.97
2018-01-10T01:01:29.292Z,5.37
2018-01-10T01:03:56.806Z,5.73
2018-01-10T01:06:24.306Z,7.37
2018-01-10T01:08:51.814Z,5.37
2018-01-10T01:11:19.307Z,4.20
2018-01-10T01:13:47.598Z,3.73
2018-01-10T01:16:15.092Z,4.43
2018-01-10T01:18:42.602Z,4.27
2018-01-10T01:21:10.872Z,4.33
2018-01-10T01:23:39.147Z,4.37
2018-01-10T01:26:07.434Z,4.67
2018-01-10T01:28:34.954Z,4.70
2018-01-10T01:31:02.551Z,4.20
2018-01-10T01:33:30.067Z,4.93
2018-01-10T01:35:57.558Z,4.70
2018-01-10T01:38:25.838Z,5.17
2018-01-10T01:40:54.097Z,5.20
2018-01-10T01:43:22.395Z,4.80
2018-01-10T01:45:49.954Z,5.20
2018-01-10T01:48:17.489Z,4.77
2018-01-10T01:50:45.754Z,4.83
2018-01-10T01:53:13.272Z,4.93
2018-01-10T01:55:40.763Z,5.13
2018-01-10T01:58:08.270Z,5.20
2018-01-10T02:00:36.197Z,5.67
2018-01-10T02:03:03.727Z,4.83
2018-01-10T02:05:31.219Z,5.23
2018-01-10T02:07:58.734Z,5.10
2018-01-10T02:10:26.222Z,5.30
2018-01-10T02:12:53.731Z,5.13
2018-01-10T02:15:21.287Z,5.03
2018-01-10T02:17:48.802Z,4.57
2018-01-10T02:20:16.311Z,5.70
2018-01-10T02:22:43.825Z,5.30
2018-01-10T02:25:11.323Z,5.17
2018-01-10T02:27:38.836Z,5.07
2018-01-10T02:30:06.435Z,5.20
2018-01-10T02:32:33.954Z,6.00
2018-01-10T02:35:01.462Z,6.70
2018-01-10T02:37:28.954Z,6.43
2018-01-10T02:39:56.562Z,6.60
2018-01-10T02:42:36.178Z,7.10
2018-01-10T02:45:04.474Z,6.73
2018-01-10T02:47:32.742Z,6.70
2018-01-10T02:50:01.043Z,6.67
2018-01-10T02:52:28.915Z,6.17
2018-01-10T02:54:56.458Z,6.70
2018-01-10T02:57:23.959Z,7.33
2018-01-10T02:59:51.466Z,7.07
2018-01-10T03:02:19.734Z,7.20
2018-01-10T03:04:48.014Z,5.90
2018-01-10T03:07:16.306Z,6.00
2018-01-10T03:09:43.822Z,5.83
2018-01-10T03:12:11.322Z,5.30
2018-01-10T03:14:38.834Z,5.80
2018-01-10T03:17:06.339Z,5.23
2018-01-10T03:19:33.850Z,5.20
2018-01-10T03:22:01.342Z,5.63
2018-01-10T03:24:29.618Z,6.97
2018-01-10T03:26:57.874Z,5.40
2018-01-10T03:29:25.463Z,6.10
2018-01-10T03:31:52.953Z,6.27
2018-01-10T03:34:20.471Z,5.80
2018-01-10T03:36:48.726Z,5.80
2018-01-10T03:39:16.238Z,5.57
2018-01-10T03:41:43.726Z,5.13
2018-01-10T03:44:11.326Z,5.83
2018-01-10T03:46:38.819Z,4.97
2018-01-10T03:49:06.346Z,5.20
2018-01-10T03:51:33.842Z,5.30
2018-01-10T03:54:01.684Z,5.90
2018-01-10T03:56:29.191Z,5.30
2018-01-10T03:58:56.710Z,5.60
2018-01-10T04:01:24.243Z,5.90
2018-01-10T04:03:51.750Z,4.83
2018-01-10T04:06:19.238Z,4.80
2018-01-10T04:08:47.519Z,5.40
2018-01-10T04:11:15.030Z,5.40
2018-01-10T04:13:42.551Z,4.97
2018-01-10T04:16:10.044Z,4.60
2018-01-10T04:18:37.554Z,6.20
2018-01-10T04:21:05.844Z,4.33
2018-01-10T04:23:33.355Z,5.30
2018-01-10T04:26:00.854Z,5.60
2018-01-10T04:28:29.126Z,5.37
2018-01-10T04:30:57.382Z,5.67
2018-01-10T04:33:24.898Z,5.83
2018-01-10T04:35:52.392Z,6.13
2018-01-10T04:38:20.410Z,5.30
2018-01-10T04:40:47.975Z,4.83
2018-01-10T04:43:15.471Z,5.60
2018-01-10T04:45:42.984Z,5.50
2018-01-10T04:48:10.530Z,5.47
2018-01-10T04:50:38.043Z,4.70
2018-01-10T04:53:05.650Z,5.20
2018-01-10T04:55:33.207Z,5.53
2018-01-10T04:58:00.706Z,5.60
2018-01-10T05:00:28.219Z,5.33
2018-01-10T05:02:55.709Z,4.80
2018-01-10T05:05:23.226Z,5.63
2018-01-10T05:07:51.487Z,5.43
2018-01-10T05:10:19.000Z,4.90
2018-01-10T05:12:46.499Z,4.60
2018-01-10T05:15:14.010Z,4.80
2018-01-10T05:17:41.545Z,5.67
2018-01-10T05:20:09.105Z,4.53
2018-01-10T05:22:36.598Z,6.37
2018-01-10T05:25:04.118Z,5.73
2018-01-10T05:27:32.002Z,5.90
2018-01-10T05:29:59.971Z,5.47
2018-01-10T05:32:27.514Z,5.30
2018-01-10T05:34:55.026Z,5.70
2018-01-10T05:37:22.534Z,4.00
2018-01-10T05:39:50.094Z,4.97
2018-01-10T05:42:17.585Z,5.63
2018-01-10T05:44:45.146Z,6.80
2018-01-10T05:47:12.614Z,6.27
2018-01-10T05:49:40.158Z,6.63
2018-01-10T05:52:07.658Z,5.73
2018-01-10T05:54:35.934Z,6.57
2018-01-10T05:57:04.230Z,7.70
2018-01-10T05:59:31.799Z,8.93
2018-01-10T06:01:59.302Z,5.83
2018-01-10T06:04:26.818Z,5.43
2018-01-10T06:06:54.370Z,5.80
2018-01-10T06:09:21.874Z,5.37
2018-01-10T06:11:49.384Z,4.40
2018-01-10T06:14:16.938Z,5.10
2018-01-10T06:16:45.215Z,4.83
2018-01-10T06:19:12.718Z,6.60
2018-01-10T06:21:40.230Z,6.80
2018-01-10T06:24:08.486Z,10.17
2018-01-10T06:26:36.777Z,9.43
2018-01-10T06:29:05.035Z,8.77
2018-01-10T06:31:33.313Z,6.37
2018-01-10T06:34:01.578Z,7.37
2018-01-10T06:36:29.095Z,9.87
2018-01-10T06:38:56.630Z,10.00
2018-01-10T06:41:24.194Z,10.20
2018-01-10T06:43:51.695Z,10.03
2018-01-10T06:46:19.309Z,8.60
2018-01-10T06:48:46.812Z,8.00
2018-01-10T06:51:14.322Z,9.07
2018-01-10T06:53:41.818Z,9.60
2018-01-10T06:56:09.433Z,9.30
2018-01-10T06:58:37.004Z,9.10
2018-01-10T07:01:04.542Z,9.60
2018-01-10T07:03:32.814Z,7.30
2018-01-10T07:06:01.119Z,5.57
2018-01-10T07:08:28.640Z,6.87
2018-01-10T07:10:56.229Z,5.97
2018-01-10T07:13:23.791Z,8.03
2018-01-10T07:15:51.346Z,7.83
2018-01-10T07:18:18.866Z,9.30
2018-01-10T07:20:46.366Z,17.67
2018-01-10T07:23:13.886Z,13.97
2018-01-10T07:25:41.387Z,8.73
2018-01-10T07:28:08.902Z,7.30
2018-01-10T07:30:36.404Z,8.90
2018-01-10T07:33:03.922Z,19.40
2018-01-10T07:35:31.419Z,12.03
2018-01-10T07:37:58.938Z,14.43
2018-01-10T07:40:26.435Z,9.40
2018-01-10T07:42:53.964Z,6.63
2018-01-10T07:45:22.262Z,6.43
2018-01-10T07:47:49.818Z,6.60
2018-01-10T07:50:17.339Z,8.00
2018-01-10T07:52:44.834Z,5.83
2018-01-10T07:55:12.342Z,5.10
2018-01-10T07:57:39.830Z,4.50
2018-01-10T08:00:08.130Z,5.50
2018-01-10T08:02:35.686Z,6.20
2018-01-10T08:05:03.246Z,6.50
2018-01-10T08:07:30.742Z,5.60
2018-01-10T08:09:58.293Z,5.80
2018-01-10T08:12:25.773Z,6.00
2018-01-10T08:14:54.819Z,5.63
2018-01-10T08:17:22.319Z,6.73
2018-01-10T08:19:49.830Z,6.03
2018-01-10T08:22:17.335Z,6.93
2018-01-10T08:24:45.106Z,5.83
2018-01-10T08:27:12.608Z,7.27
2018-01-10T08:29:40.127Z,5.53
2018-01-10T08:32:07.621Z,6.90
2018-01-10T08:34:35.906Z,6.83
2018-01-10T08:37:03.407Z,7.50
2018-01-10T08:39:30.910Z,8.00
2018-01-10T08:41:59.190Z,7.00
2018-01-10T08:44:26.678Z,5.50
2018-01-10T08:46:54.187Z,4.97
2018-01-10T08:49:22.446Z,4.00
2018-01-10T08:51:49.959Z,4.30
2018-01-10T08:54:17.458Z,4.80
2018-01-10T08:56:44.967Z,5.10
2018-01-10T08:59:12.466Z,6.10
2018-01-10T09:01:39.978Z,6.00
2018-01-10T09:04:07.474Z,4.70
2018-01-10T09:06:34.981Z,4.27
2018-01-10T09:09:03.247Z,4.37
2018-01-10T09:11:31.527Z,3.50
2018-01-10T09:13:59.797Z,5.00
2018-01-10T09:16:28.083Z,5.20
2018-01-10T09:18:56.342Z,5.77
2018-01-10T09:21:24.672Z,5.37
2018-01-10T09:23:52.138Z,5.10
2018-01-10T09:26:19.655Z,4.43
2018-01-10T09:28:47.918Z,5.00
2018-01-10T09:31:16.199Z,11.17
2018-01-10T09:33:44.466Z,10.03
2018-01-10T09:36:12.747Z,9.33
2018-01-10T09:38:41.008Z,5.93
2018-01-10T09:41:08.523Z,6.77
2018-01-10T09:43:36.014Z,5.70
2018-01-10T09:46:03.527Z,5.90
2018-01-10T09:48:31.019Z,5.87
2018-01-10T09:50:58.531Z,5.60
2018-01-10T09:53:26.022Z,5.63
2018-01-10T09:55:53.542Z,5.73
2018-01-10T09:58:21.058Z,7.73
2018-01-10T10:00:48.575Z,7.40
2018-01-10T10:03:16.074Z,5.50
2018-01-10T10:05:43.590Z,4.93
2018-01-10T10:08:11.082Z,4.50
2018-01-10T10:10:38.593Z,4.90
2018-01-10T10:13:06.095Z,4.27
2018-01-10T10:15:33.618Z,4.50
2018-01-10T10:18:01.110Z,4.30
2018-01-10T10:20:28.630Z,4.43
2018-01-10T10:22:56.130Z,4.30
2018-01-10T10:25:23.622Z,5.00
2018-01-10T10:27:51.902Z,3.83
2018-01-10T10:30:20.167Z,4.80
2018-01-10T10:32:48.442Z,4.03
2018-01-10T10:35:16.707Z,5.97
2018-01-10T10:37:44.222Z,5.70
2018-01-10T10:40:11.714Z,5.80
2018-01-10T10:42:39.239Z,4.77
2018-01-10T10:45:06.732Z,4.87
2018-01-10T10:47:34.257Z,5.40
2018-01-10T10:50:01.752Z,4.77
2018-01-10T10:52:29.259Z,4.77
2018-01-10T10:54:56.755Z,5.20
2018-01-10T10:57:24.267Z,4.50
2018-01-10T10:59:51.763Z,5.33
2018-01-10T11:02:19.278Z,4.90
2018-01-10T11:04:46.795Z,5.23
2018-01-10T11:07:15.922Z,5.67
2018-01-10T11:09:44.190Z,5.70
2018-01-10T11:12:12.466Z,6.30
2018-01-10T11:14:40.729Z,6.10
2018-01-10T11:17:08.255Z,7.00
2018-01-10T11:19:35.758Z,6.00
2018-01-10T11:22:04.036Z,6.87
2018-01-10T11:24:32.297Z,6.27
2018-01-10T11:26:59.906Z,7.07
2018-01-10T11:29:27.401Z,7.40
2018-01-10T11:31:54.919Z,8.77
2018-01-10T11:34:22.419Z,9.63
2018-01-10T11:36:49.934Z,8.57
2018-01-10T11:39:17.430Z,8.50
2018-01-10T11:41:44.945Z,9.00
2018-01-10T11:44:12.452Z,10.67
2018-01-10T11:46:39.978Z,10.30
2018-01-10T11:49:07.482Z,10.93
2018-01-10T11:51:34.998Z,10.10
2018-01-10T11:56:30.023Z,10.70
2018-01-10T11:58:57.529Z,12.00
2018-01-10T12:01:25.806Z,10.20
2018-01-10T12:03:54.078Z,10.07
2018-01-10T12:06:22.360Z,9.93
2018-01-10T12:08:50.624Z,9.40
2018-01-10T12:11:18.901Z,10.00
2018-01-10T12:13:47.161Z,10.20
2018-01-10T12:16:15.475Z,9.00
2018-01-10T12:18:42.990Z,9.30
2018-01-10T12:21:10.590Z,9.00
2018-01-10T12:23:38.149Z,9.60
2018-01-10T12:26:05.647Z,11.10
2018-01-10T12:28:33.285Z,10.50
2018-01-10T12:31:00.839Z,9.20
2018-01-10T12:33:28.370Z,9.73
2018-01-10T12:35:56.637Z,10.30
2018-01-10T12:38:24.217Z,10.20
2018-01-10T12:40:52.478Z,9.00
2018-01-10T12:43:20.778Z,9.60
2018-01-10T12:45:48.268Z,9.83
2018-01-10T12:48:15.786Z,8.97
2018-01-10T12:50:43.345Z,9.60
2018-01-10T12:53:10.867Z,9.57
2018-01-10T12:55:38.366Z,9.33
2018-01-10T12:58:05.926Z,9.17
2018-01-10T13:00:33.418Z,9.70
2018-01-10T13:03:00.927Z,8.67
2018-01-10T13:05:29.189Z,8.67
2018-01-10T13:07:56.699Z,8.80
2018-01-10T13:10:24.192Z,9.10
2018-01-10T13:12:51.801Z,9.30
2018-01-10T13:15:19.302Z,9.73
2018-01-10T13:17:46.822Z,9.10
2018-01-10T13:20:14.318Z,8.87
2018-01-10T13:22:41.922Z,9.50
2018-01-10T13:25:10.183Z,9.80
2018-01-10T13:27:38.476Z,11.17
2018-01-10T13:30:05.970Z,10.60
2018-01-10T13:32:33.482Z,10.27
2018-01-10T13:35:01.770Z,11.27
2018-01-10T13:37:29.290Z,10.80
2018-01-10T13:39:56.786Z,10.63
2018-01-10T13:42:24.351Z,10.20
2018-01-10T13:44:51.858Z,9.17
2018-01-10T13:47:19.397Z,10.40
2018-01-10T13:49:46.894Z,10.30
2018-01-10T13:52:15.183Z,12.00
2018-01-10T13:54:43.446Z,10.97
2018-01-10T13:57:11.730Z,11.17
2018-01-10T13:59:39.990Z,10.60
2018-01-10T14:02:07.515Z,11.73
2018-01-10T14:04:35.017Z,12.03
2018-01-10T14:07:03.278Z,11.30
2018-01-10T14:09:30.878Z,10.90
2018-01-10T14:11:58.438Z,10.90
2018-01-10T14:14:25.950Z,11.03
2018-01-10T14:16:54.219Z,10.70
2018-01-10T14:19:21.831Z,11.40
2018-01-10T14:21:49.335Z,11.37
2018-01-10T14:24:16.855Z,10.73
2018-01-10T14:26:44.358Z,11.10
2018-01-10T14:29:11.958Z,11.80
2018-01-10T14:31:39.454Z,10.53
2018-01-10T14:34:06.963Z,9.87
2018-01-10T14:36:35.231Z,11.07
2018-01-10T14:39:03.514Z,11.63
2018-01-10T14:41:31.867Z,11.43
2018-01-10T14:43:59.358Z,11.20
2018-01-10T14:46:27.646Z,11.43
2018-01-10T14:48:55.198Z,10.80
2018-01-10T14:51:22.762Z,11.47
2018-01-10T14:53:50.262Z,9.50
2018-01-10T14:56:17.773Z,12.60
2018-01-10T14:58:45.266Z,11.07
2018-01-10T15:01:12.787Z,10.30
2018-01-10T15:03:40.353Z,10.83
2018-01-10T15:06:07.870Z,10.60
2018-01-10T15:08:36.138Z,9.07
2018-01-10T15:11:03.654Z,9.23
2018-01-10T15:13:31.150Z,9.37
2018-01-10T15:15:58.763Z,10.70
2018-01-10T15:18:26.318Z,9.23
2018-01-10T15:20:53.830Z,10.50
2018-01-10T15:23:21.332Z,8.70
2018-01-10T15:25:48.856Z,10.33
2018-01-10T15:28:16.353Z,9.70
2018-01-10T15:30:43.874Z,9.40
2018-01-10T15:33:11.370Z,7.63
2018-01-10T15:35:38.902Z,8.57
2018-01-10T15:38:07.163Z,11.97
2018-01-10T15:40:34.679Z,12.20
2018-01-10T15:43:02.179Z,9.30
2018-01-10T15:45:29.996Z,7.90
2018-01-10T15:47:57.495Z,10.00
2018-01-10T15:50:25.019Z,12.20
2018-01-10T15:52:52.522Z,8.57
2018-01-10T15:55:20.034Z,8.03
2018-01-10T15:57:47.532Z,16.83
2018-01-10T16:00:15.050Z,12.57
2018-01-10T16:02:42.550Z,9.50
2018-01-10T16:05:10.066Z,8.00
2018-01-10T16:07:37.562Z,9.50
2018-01-10T16:10:05.059Z,8.70
2018-01-10T16:12:32.619Z,7.57
2018-01-10T16:15:00.110Z,8.00
2018-01-10T16:17:27.625Z,8.47
2018-01-10T16:19:55.909Z,9.50
2018-01-10T16:22:23.422Z,10.80
2018-01-10T16:24:50.935Z,10.50
2018-01-10T16:27:18.458Z,10.43
2018-01-10T16:29:45.962Z,10.03
2018-01-10T16:32:13.502Z,11.23
2018-01-10T16:34:40.994Z,9.57
2018-01-10T16:37:08.522Z,10.50
2018-01-10T16:39:36.090Z,13.53
2018-01-10T16:42:03.611Z,12.30
2018-01-10T16:44:31.875Z,9.50
2018-01-10T16:46:59.475Z,11.00
2018-01-10T16:49:26.974Z,12.17
2018-01-10T16:51:54.486Z,11.50
2018-01-10T16:54:21.986Z,11.10
2018-01-10T16:56:49.503Z,11.50
2018-01-10T16:59:17.010Z,10.80
2018-01-10T17:01:44.532Z,14.37
2018-01-10T17:04:12.346Z,14.03
2018-01-10T17:06:39.857Z,13.73
2018-01-10T17:09:07.361Z,11.87
2018-01-10T17:11:34.882Z,10.77
2018-01-10T17:14:02.378Z,11.47
2018-01-10T17:16:29.899Z,10.67
2018-01-10T17:18:57.407Z,10.80
2018-01-10T17:21:25.698Z,11.70
2018-01-10T17:23:55.251Z,11.67
2018-01-10T17:26:22.893Z,11.77
2018-01-10T17:28:50.399Z,15.70
2018-01-10T17:31:17.915Z,14.23
2018-01-10T17:33:45.414Z,12.97
2018-01-10T17:36:12.930Z,15.63
2018-01-10T17:38:40.434Z,41.57
2018-01-10T17:41:07.950Z,18.83
2018-01-10T17:43:35.450Z,17.50
2018-01-10T17:46:02.962Z,17.73
2018-01-10T17:48:30.471Z,15.73
2018-01-10T17:50:58.759Z,18.83
2018-01-10T17:53:27.031Z,19.17
2018-01-10T17:55:55.314Z,14.33
2018-01-10T17:58:22.827Z,12.40
2018-01-10T18:00:50.342Z,13.80
2018-01-10T18:03:17.845Z,17.40
2018-01-10T18:05:45.350Z,26.30
2018-01-10T18:08:13.626Z,22.93
2018-01-10T18:10:41.937Z,20.67
2018-01-10T18:13:09.581Z,17.20
2018-01-10T18:15:37.085Z,17.00
2018-01-10T18:18:04.599Z,21.07
2018-01-10T18:20:32.098Z,27.47
2018-01-10T18:23:00.389Z,28.27
2018-01-10T18:25:27.895Z,26.03
2018-01-10T18:27:55.418Z,25.10
2018-01-10T18:30:23.686Z,23.17
2018-01-10T18:32:51.978Z,20.77
2018-01-10T18:35:20.248Z,20.03
2018-01-10T18:37:48.535Z,22.43
2018-01-10T18:40:16.056Z,23.70
2018-01-10T18:42:43.579Z,22.77
2018-01-10T18:45:11.078Z,22.50
2018-01-10T18:47:38.600Z,23.20
2018-01-10T18:50:09.259Z,21.87
2018-01-10T18:52:40.816Z,22.23
2018-01-10T18:55:14.551Z,21.53
2018-01-10T18:57:45.699Z,20.63
2018-01-10T19:00:16.372Z,24.37
2018-01-10T19:02:51.987Z,20.77
2018-01-10T19:05:22.207Z,22.83
2018-01-10T19:10:33.405Z,20.17
2018-01-10T19:13:06.932Z,23.80
2018-01-10T19:15:36.677Z,22.20
2018-01-10T19:18:06.629Z,22.20
2018-01-10T19:20:49.996Z,21.17
2018-01-10T19:23:25.809Z,20.60
2018-01-10T19:26:01.440Z,18.93
2018-01-10T19:28:29.765Z,25.40
2018-01-10T19:30:57.270Z,20.03
2018-01-10T19:33:25.551Z,23.60
2018-01-10T19:35:53.819Z,17.53
2018-01-10T19:38:22.383Z,22.20
2018-01-10T19:40:49.893Z,21.40
2018-01-10T19:43:17.411Z,20.37
2018-01-10T19:45:44.914Z,18.80
2018-01-10T19:48:12.435Z,20.70
2018-01-10T19:50:40.706Z,22.43
2018-01-10T19:53:08.222Z,19.20
2018-01-10T19:55:35.720Z,21.20
2018-01-10T19:58:03.234Z,21.50
2018-01-10T20:00:30.740Z,22.53
2018-01-10T20:02:59.047Z,19.60
2018-01-10T20:05:26.550Z,20.77
2018-01-10T20:07:54.067Z,21.50
2018-01-10T20:10:21.570Z,22.27
2018-01-10T20:12:49.089Z,24.93
2018-01-10T20:15:16.586Z,26.20
2018-01-10T20:17:44.115Z,26.23
2018-01-10T20:20:11.615Z,24.03
2018-01-10T20:22:39.130Z,21.03
2018-01-10T20:25:06.631Z,23.13
2018-01-10T20:27:34.145Z,19.83
2018-01-10T20:30:01.644Z,24.00
2018-01-10T20:32:29.162Z,24.90
2018-01-10T20:34:56.658Z,26.50
2018-01-10T20:37:24.174Z,23.40
2018-01-10T20:39:51.674Z,19.87
2018-01-10T20:42:19.194Z,22.20
2018-01-10T20:44:46.686Z,18.43
2018-01-10T20:47:14.207Z,23.03
2018-01-10T20:49:41.711Z,22.20
2018-01-10T20:52:09.234Z,26.43
2018-01-10T20:54:36.741Z,28.90
2018-01-10T20:57:05.023Z,46.37
2018-01-10T20:59:33.579Z,21.27
2018-01-10T21:02:01.102Z,19.80
2018-01-10T21:04:28.610Z,19.03
2018-01-10T21:06:56.899Z,19.17
2018-01-10T21:09:25.163Z,21.60
2018-01-10T21:11:53.451Z,20.90
2018-01-10T21:14:21.718Z,19.23
2018-01-10T21:16:49.978Z,19.43
2018-01-10T21:19:17.495Z,20.60
2018-01-10T21:21:45.038Z,20.93
2018-01-10T21:24:12.554Z,19.67
2018-01-10T21:26:40.055Z,20.40
2018-01-10T21:29:07.571Z,23.43
2018-01-10T21:31:35.062Z,21.93
2018-01-10T21:34:02.582Z,17.70
2018-01-10T21:36:30.085Z,16.97
2018-01-10T21:38:57.641Z,18.70
2018-01-10T21:41:25.147Z,17.53
2018-01-10T21:43:52.658Z,14.27
2018-01-10T21:46:20.155Z,15.40
2018-01-10T21:48:47.671Z,16.27
2018-01-10T21:51:15.182Z,19.00
2018-01-10T21:53:42.689Z,17.93
2018-01-10T21:56:10.334Z,16.30
2018-01-10T21:58:37.958Z,19.13
2018-01-10T22:01:05.551Z,18.60
2018-01-10T22:03:33.838Z,19.20
2018-01-10T22:06:01.357Z,19.83
2018-01-10T22:08:28.888Z,20.00
2018-01-10T22:10:56.407Z,18.50
2018-01-10T22:13:24.722Z,18.83
2018-01-10T22:15:52.221Z,19.53
2018-01-10T22:18:19.725Z,17.60
2018-01-10T22:20:47.243Z,18.20
2018-01-10T22:23:15.512Z,18.67
2018-01-10T22:25:43.051Z,20.60
2018-01-10T22:28:10.550Z,18.03
2018-01-10T22:30:38.837Z,19.70
2018-01-10T22:33:06.339Z,19.60
2018-01-10T22:35:33.864Z,18.33
2018-01-10T22:38:01.368Z,19.57
2018-01-10T22:40:28.888Z,17.40
2018-01-10T22:42:56.394Z,18.80
2018-01-10T22:45:23.914Z,19.83
2018-01-10T22:47:51.425Z,20.80
2018-01-10T22:50:19.762Z,21.60
2018-01-10T22:52:47.271Z,20.10
2018-01-10T22:55:14.774Z,20.43
2018-01-10T22:57:42.293Z,20.80
2018-01-10T23:00:09.842Z,19.97
2018-01-10T23:02:37.370Z,18.40
2018-01-10T23:05:04.880Z,17.87
2018-01-10T23:07:32.402Z,18.73
2018-01-10T23:10:00.671Z,20.53
2018-01-10T23:12:28.190Z,18.20
2018-01-10T23:14:55.694Z,16.80
2018-01-10T23:17:23.978Z,16.63
2018-01-10T23:19:52.245Z,14.70
2018-01-10T23:22:20.526Z,16.83
2018-01-10T23:24:48.789Z,15.20
2018-01-10T23:27:16.314Z,16.17
2018-01-10T23:29:43.822Z,16.67
2018-01-10T23:32:12.118Z,15.50
2018-01-10T23:34:39.630Z,16.20
2018-01-10T23:37:07.138Z,15.00
2018-01-10T23:39:34.662Z,14.10
2018-01-10T23:42:02.935Z,17.07
2018-01-10T23:44:30.455Z,16.20
2018-01-10T23:46:57.963Z,16.97
2018-01-10T23:49:26.250Z,16.50
2018-01-10T23:51:53.753Z,18.03
2018-01-10T23:54:21.271Z,17.43
2018-01-10T23:56:48.774Z,18.03
2018-01-10T23:59:16.300Z,18.40
